sensor_id;sensor_type;location;lat;lon;timestamp;pressure;altitude;pressure_sealevel;temperature
58102;BMP280;52034;51.926;6.320;2023-12-20T00:00:29;101329.50;;;7.46
58102;BMP280;52034;51.926;6.320;2023-12-20T00:01:29;101328.75;;;7.45
58102;BMP280;52034;51.926;6.320;2023-12-20T00:02:30;101329.50;;;7.46
58102;BMP280;52034;51.926;6.320;2023-12-20T00:03:30;101330.25;;;7.46
58102;BMP280;52034;51.926;6.320;2023-12-20T00:04:30;101325.97;;;7.45
58102;BMP280;52034;51.926;6.320;2023-12-20T00:05:31;101329.50;;;7.46
58102;BMP280;52034;51.926;6.320;2023-12-20T00:06:32;101332.19;;;7.44
58102;BMP280;52034;51.926;6.320;2023-12-20T00:07:33;101334.34;;;7.45
58102;BMP280;52034;51.926;6.320;2023-12-20T00:08:33;101337.13;;;7.45
58102;BMP280;52034;51.926;6.320;2023-12-20T00:09:33;101326.69;;;7.46
58102;BMP280;52034;51.926;6.320;2023-12-20T00:10:34;101332.91;;;7.44
58102;BMP280;52034;51.926;6.320;2023-12-20T00:11:34;101324.53;;;7.44
58102;BMP280;52034;51.926;6.320;2023-12-20T00:12:34;101322.56;;;7.47
58102;BMP280;52034;51.926;6.320;2023-12-20T00:13:35;101315.78;;;7.38
58102;BMP280;52034;51.926;6.320;2023-12-20T00:14:35;101325.88;;;7.43
58102;BMP280;52034;51.926;6.320;2023-12-20T00:15:36;101321.75;;;7.44
58102;BMP280;52034;51.926;6.320;2023-12-20T00:16:36;101318.81;;;7.42
58102;BMP280;52034;51.926;6.320;2023-12-20T00:17:36;101318.09;;;7.42
58102;BMP280;52034;51.926;6.320;2023-12-20T00:18:37;101318.09;;;7.42
58102;BMP280;52034;51.926;6.320;2023-12-20T00:19:37;101312.53;;;7.42
58102;BMP280;52034;51.926;6.320;2023-12-20T00:20:38;101316.03;;;7.42
58102;BMP280;52034;51.926;6.320;2023-12-20T00:21:38;101307.28;;;7.36
58102;BMP280;52034;51.926;6.320;2023-12-20T00:22:38;101310.19;;;7.38
58102;BMP280;52034;51.926;6.320;2023-12-20T00:23:39;101312.25;;;7.38
58102;BMP280;52034;51.926;6.320;2023-12-20T00:24:39;101309.34;;;7.36
58102;BMP280;52034;51.926;6.320;2023-12-20T00:25:39;101317.00;;;7.35
58102;BMP280;52034;51.926;6.320;2023-12-20T00:26:40;101309.84;;;7.32
58102;BMP280;52034;51.926;6.320;2023-12-20T00:27:40;101315.31;;;7.30
58102;BMP280;52034;51.926;6.320;2023-12-20T00:28:41;101313.25;;;7.31
58102;BMP280;52034;51.926;6.320;2023-12-20T00:29:42;101309.00;;;7.30
58102;BMP280;52034;51.926;6.320;2023-12-20T00:30:47;101319.56;;;7.31
58102;BMP280;52034;51.926;6.320;2023-12-20T00:31:48;101322.22;;;7.29
58102;BMP280;52034;51.926;6.320;2023-12-20T00:32:48;101305.97;;;7.26
58102;BMP280;52034;51.926;6.320;2023-12-20T00:33:49;101321.38;;;7.27
58102;BMP280;52034;51.926;6.320;2023-12-20T00:34:49;101315.06;;;7.26
58102;BMP280;52034;51.926;6.320;2023-12-20T00:35:50;101309.59;;;7.28
58102;BMP280;52034;51.926;6.320;2023-12-20T00:36:50;101302.31;;;7.23
58102;BMP280;52034;51.926;6.320;2023-12-20T00:37:51;101309.97;;;7.23
58102;BMP280;52034;51.926;6.320;2023-12-20T00:38:51;101312.88;;;7.25
58102;BMP280;52034;51.926;6.320;2023-12-20T00:39:52;101314.13;;;7.22
58102;BMP280;52034;51.926;6.320;2023-12-20T00:40:52;101305.97;;;7.26
58102;BMP280;52034;51.926;6.320;2023-12-20T00:41:52;101316.41;;;7.25
58102;BMP280;52034;51.926;6.320;2023-12-20T00:42:53;101312.88;;;7.25
58102;BMP280;52034;51.926;6.320;2023-12-20T00:43:53;101319.19;;;7.25
58102;BMP280;52034;51.926;6.320;2023-12-20T00:44:53;101325.50;;;7.26
58102;BMP280;52034;51.926;6.320;2023-12-20T00:45:54;101321.97;;;7.25
58102;BMP280;52034;51.926;6.320;2023-12-20T00:46:55;101327.09;;;7.29
58102;BMP280;52034;51.926;6.320;2023-12-20T00:47:56;101316.41;;;7.25
58102;BMP280;52034;51.926;6.320;2023-12-20T00:48:56;101320.78;;;7.28
58102;BMP280;52034;51.926;6.320;2023-12-20T00:49:57;101323.69;;;7.30
58102;BMP280;52034;51.926;6.320;2023-12-20T00:50:58;101309.84;;;7.21
58102;BMP280;52034;51.926;6.320;2023-12-20T00:51:58;101330.59;;;7.29
58102;BMP280;52034;51.926;6.320;2023-12-20T00:52:59;101320.03;;;7.28
58102;BMP280;52034;51.926;6.320;2023-12-20T00:54:00;101305.00;;;7.21
58102;BMP280;52034;51.926;6.320;2023-12-20T00:55:00;101317.75;;;7.24
58102;BMP280;52034;51.926;6.320;2023-12-20T00:56:00;101318.59;;;7.27
58102;BMP280;52034;51.926;6.320;2023-12-20T00:57:01;101310.09;;;7.25
58102;BMP280;52034;51.926;6.320;2023-12-20T00:58:01;101322.13;;;7.27
58102;BMP280;52034;51.926;6.320;2023-12-20T00:59:01;101305.22;;;7.25
58102;BMP280;52034;51.926;6.320;2023-12-20T01:00:02;101316.41;;;7.25
58102;BMP280;52034;51.926;6.320;2023-12-20T01:01:03;101307.31;;;7.25
58102;BMP280;52034;51.926;6.320;2023-12-20T01:02:03;101313.38;;;7.21
58102;BMP280;52034;51.926;6.320;2023-12-20T01:03:04;101316.41;;;7.25
58102;BMP280;52034;51.926;6.320;2023-12-20T01:04:04;101316.28;;;7.23
58102;BMP280;52034;51.926;6.320;2023-12-20T01:05:05;101317.75;;;7.24
58102;BMP280;52034;51.926;6.320;2023-12-20T01:06:07;101316.19;;;7.21
58102;BMP280;52034;51.926;6.320;2023-12-20T01:07:07;101323.19;;;7.22
58102;BMP280;52034;51.926;6.320;2023-12-20T01:08:08;101316.78;;;7.20
58102;BMP280;52034;51.926;6.320;2023-12-20T01:09:08;101320.38;;;7.22
58102;BMP280;52034;51.926;6.320;2023-12-20T01:10:09;101312.00;;;7.22
58102;BMP280;52034;51.926;6.320;2023-12-20T01:11:09;101321.75;;;7.21
58102;BMP280;52034;51.926;6.320;2023-12-20T01:12:10;101311.06;;;7.18
58102;BMP280;52034;51.926;6.320;2023-12-20T01:13:10;101310.22;;;7.15
58102;BMP280;52034;51.926;6.320;2023-12-20T01:14:10;101315.94;;;7.17
58102;BMP280;52034;51.926;6.320;2023-12-20T01:15:12;101310.22;;;7.15
58102;BMP280;52034;51.926;6.320;2023-12-20T01:16:12;101308.88;;;7.16
58102;BMP280;52034;51.926;6.320;2023-12-20T01:17:12;101309.59;;;7.17
58102;BMP280;52034;51.926;6.320;2023-12-20T01:18:13;101307.41;;;7.15
58102;BMP280;52034;51.926;6.320;2023-12-20T01:19:14;101307.41;;;7.15
58102;BMP280;52034;51.926;6.320;2023-12-20T01:20:15;101301.69;;;7.13
58102;BMP280;52034;51.926;6.320;2023-12-20T01:21:15;101303.03;;;7.12
58102;BMP280;52034;51.926;6.320;2023-12-20T01:22:15;101300.03;;;7.08
58102;BMP280;52034;51.926;6.320;2023-12-20T01:23:16;101304.38;;;7.11
58102;BMP280;52034;51.926;6.320;2023-12-20T01:24:16;101304.38;;;7.11
58102;BMP280;52034;51.926;6.320;2023-12-20T01:25:16;101297.84;;;7.07
58102;BMP280;52034;51.926;6.320;2023-12-20T01:26:17;101310.44;;;7.08
58102;BMP280;52034;51.926;6.320;2023-12-20T01:27:17;101310.44;;;7.08
58102;BMP280;52034;51.926;6.320;2023-12-20T01:28:17;101311.78;;;7.07
58102;BMP280;52034;51.926;6.320;2023-12-20T01:29:18;101318.72;;;7.06
58102;BMP280;52034;51.926;6.320;2023-12-20T01:30:18;101313.84;;;7.06
58102;BMP280;52034;51.926;6.320;2023-12-20T01:31:19;101317.38;;;7.07
58102;BMP280;52034;51.926;6.320;2023-12-20T01:32:20;101308.25;;;7.06
58102;BMP280;52034;51.926;6.320;2023-12-20T01:33:20;101312.25;;;7.03
58102;BMP280;52034;51.926;6.320;2023-12-20T01:34:20;101310.66;;;7.00
58102;BMP280;52034;51.926;6.320;2023-12-20T01:35:21;101312.63;;;6.98
58102;BMP280;52034;51.926;6.320;2023-12-20T01:36:21;101320.53;;;7.01
58102;BMP280;52034;51.926;6.320;2023-12-20T01:37:21;101310.59;;;6.98
58102;BMP280;52034;51.926;6.320;2023-12-20T01:38:24;101319.78;;;7.01
58102;BMP280;52034;51.926;6.320;2023-12-20T01:39:24;101323.91;;;7.00
58102;BMP280;52034;51.926;6.320;2023-12-20T01:40:24;101316.16;;;6.98
58102;BMP280;52034;51.926;6.320;2023-12-20T01:41:25;101318.09;;;6.96
58102;BMP280;52034;51.926;6.320;2023-12-20T01:42:25;101313.00;;;6.92
58102;BMP280;52034;51.926;6.320;2023-12-20T01:43:26;101326.34;;;6.94
58102;BMP280;52034;51.926;6.320;2023-12-20T01:44:26;101311.53;;;6.91
58102;BMP280;52034;51.926;6.320;2023-12-20T01:45:27;101310.78;;;6.91
58102;BMP280;52034;51.926;6.320;2023-12-20T01:46:27;101308.59;;;6.89
58102;BMP280;52034;51.926;6.320;2023-12-20T01:47:28;101316.97;;;6.89
58102;BMP280;52034;51.926;6.320;2023-12-20T01:48:29;101321.13;;;6.88
58102;BMP280;52034;51.926;6.320;2023-12-20T01:49:29;101322.44;;;6.87
58102;BMP280;52034;51.926;6.320;2023-12-20T01:50:31;101319.66;;;6.87
58102;BMP280;52034;51.926;6.320;2023-12-20T01:51:32;101318.44;;;6.90
58102;BMP280;52034;51.926;6.320;2023-12-20T01:52:33;101306.56;;;6.90
58102;BMP280;52034;51.926;6.320;2023-12-20T01:53:34;101313.59;;;6.91
58102;BMP280;52034;51.926;6.320;2023-12-20T01:54:35;101312.84;;;6.90
58102;BMP280;52034;51.926;6.320;2023-12-20T01:55:38;101307.53;;;6.94
58102;BMP280;52034;51.926;6.320;2023-12-20T01:56:39;101304.63;;;6.92
58102;BMP280;52034;51.926;6.320;2023-12-20T01:57:44;101307.41;;;6.92
58102;BMP280;52034;51.926;6.320;2023-12-20T01:58:46;101304.00;;;6.94
58102;BMP280;52034;51.926;6.320;2023-12-20T01:59:47;101320.03;;;6.93
58102;BMP280;52034;51.926;6.320;2023-12-20T02:00:48;101318.56;;;6.92
58102;BMP280;52034;51.926;6.320;2023-12-20T02:01:49;101312.25;;;6.92
58102;BMP280;52034;51.926;6.320;2023-12-20T02:02:50;101316.38;;;6.91
58102;BMP280;52034;51.926;6.320;2023-12-20T02:03:52;101319.91;;;6.91
58102;BMP280;52034;51.926;6.320;2023-12-20T02:04:52;101318.44;;;6.90
58102;BMP280;52034;51.926;6.320;2023-12-20T02:05:53;101317.84;;;6.92
58102;BMP280;52034;51.926;6.320;2023-12-20T02:06:53;101313.44;;;6.89
58102;BMP280;52034;51.926;6.320;2023-12-20T02:07:56;101322.69;;;6.91
58102;BMP280;52034;51.926;6.320;2023-12-20T02:08:57;101321.38;;;6.92
58102;BMP280;52034;51.926;6.320;2023-12-20T02:09:58;101322.09;;;6.93
58102;BMP280;52034;51.926;6.320;2023-12-20T02:10:58;101314.06;;;6.87
58102;BMP280;52034;51.926;6.320;2023-12-20T02:11:59;101317.72;;;6.90
58102;BMP280;52034;51.926;6.320;2023-12-20T02:13:00;101315.63;;;6.90
58102;BMP280;52034;51.926;6.320;2023-12-20T02:14:00;101322.56;;;6.89
58102;BMP280;52034;51.926;6.320;2023-12-20T02:15:01;101320.50;;;6.90
58102;BMP280;52034;51.926;6.320;2023-12-20T02:16:01;101324.75;;;6.91
58102;BMP280;52034;51.926;6.320;2023-12-20T02:17:02;101323.41;;;6.92
58102;BMP280;52034;51.926;6.320;2023-12-20T02:18:04;101326.94;;;6.92
58102;BMP280;52034;51.926;6.320;2023-12-20T02:19:12;101324.75;;;6.91
58102;BMP280;52034;51.926;6.320;2023-12-20T02:20:13;101335.19;;;6.90
58102;BMP280;52034;51.926;6.320;2023-12-20T02:21:14;101324.16;;;6.92
58102;BMP280;52034;51.926;6.320;2023-12-20T02:22:15;101319.31;;;6.93
58102;BMP280;52034;51.926;6.320;2023-12-20T02:23:15;101325.75;;;6.95
58102;BMP280;52034;51.926;6.320;2023-12-20T02:24:16;101318.22;;;6.98
58102;BMP280;52034;51.926;6.320;2023-12-20T02:25:17;101327.34;;;6.98
58102;BMP280;52034;51.926;6.320;2023-12-20T02:26:18;101321.75;;;6.98
58102;BMP280;52034;51.926;6.320;2023-12-20T02:27:19;101321.22;;;7.02
58102;BMP280;52034;51.926;6.320;2023-12-20T02:28:20;101324.63;;;7.00
58102;BMP280;52034;51.926;6.320;2023-12-20T02:29:21;101323.44;;;7.03
58102;BMP280;52034;51.926;6.320;2023-12-20T02:30:22;101322.13;;;7.04
58102;BMP280;52034;51.926;6.320;2023-12-20T02:31:23;101327.81;;;7.06
58102;BMP280;52034;51.926;6.320;2023-12-20T02:32:24;101329.28;;;7.07
58102;BMP280;52034;51.926;6.320;2023-12-20T02:33:28;101328.41;;;7.05
58102;BMP280;52034;51.926;6.320;2023-12-20T02:34:28;101322.81;;;7.05
58102;BMP280;52034;51.926;6.320;2023-12-20T02:35:29;101316.38;;;7.02
58102;BMP280;52034;51.926;6.320;2023-12-20T02:36:29;101324.03;;;7.02
58102;BMP280;52034;51.926;6.320;2023-12-20T02:37:29;101324.41;;;6.96
58102;BMP280;52034;51.926;6.320;2023-12-20T02:38:30;101330.13;;;6.98
58102;BMP280;52034;51.926;6.320;2023-12-20T02:39:30;101326.47;;;6.96
58102;BMP280;52034;51.926;6.320;2023-12-20T02:40:30;101320.53;;;7.01
58102;BMP280;52034;51.926;6.320;2023-12-20T02:41:31;101316.16;;;6.98
58102;BMP280;52034;51.926;6.320;2023-12-20T02:42:31;101314.72;;;6.97
58102;BMP280;52034;51.926;6.320;2023-12-20T02:43:32;101311.31;;;6.99
58102;BMP280;52034;51.926;6.320;2023-12-20T02:44:32;101302.66;;;6.95
58102;BMP280;52034;51.926;6.320;2023-12-20T02:45:33;101304.75;;;6.94
58102;BMP280;52034;51.926;6.320;2023-12-20T02:46:33;101298.44;;;6.94
58102;BMP280;52034;51.926;6.320;2023-12-20T02:47:34;101298.88;;;6.90
58102;BMP280;52034;51.926;6.320;2023-12-20T02:48:34;101297.44;;;6.89
58102;BMP280;52034;51.926;6.320;2023-12-20T02:49:34;101296.69;;;6.89
58102;BMP280;52034;51.926;6.320;2023-12-20T02:50:35;101293.69;;;6.85
58102;BMP280;52034;51.926;6.320;2023-12-20T02:51:35;101292.25;;;6.84
58102;BMP280;52034;51.926;6.320;2023-12-20T02:52:38;101289.44;;;6.84
58102;BMP280;52034;51.926;6.320;2023-12-20T02:53:39;101301.34;;;6.84
58102;BMP280;52034;51.926;6.320;2023-12-20T02:54:39;101297.69;;;6.82
58102;BMP280;52034;51.926;6.320;2023-12-20T02:55:39;101299.88;;;6.83
58102;BMP280;52034;51.926;6.320;2023-12-20T02:56:40;101297.22;;;6.85
58102;BMP280;52034;51.926;6.320;2023-12-20T02:57:40;101292.09;;;6.82
58102;BMP280;52034;51.926;6.320;2023-12-20T02:58:41;101297.69;;;6.82
58102;BMP280;52034;51.926;6.320;2023-12-20T02:59:42;101297.69;;;6.82
58102;BMP280;52034;51.926;6.320;2023-12-20T03:00:42;101293.56;;;6.83
58102;BMP280;52034;51.926;6.320;2023-12-20T03:01:46;101303.53;;;6.86
58102;BMP280;52034;51.926;6.320;2023-12-20T03:02:46;101305.44;;;6.83
58102;BMP280;52034;51.926;6.320;2023-12-20T03:03:47;101297.09;;;6.83
58102;BMP280;52034;51.926;6.320;2023-12-20T03:04:47;101297.22;;;6.85
58102;BMP280;52034;51.926;6.320;2023-12-20T03:05:47;101302.06;;;6.85
58102;BMP280;52034;51.926;6.320;2023-12-20T03:06:48;101296.97;;;6.81
58102;BMP280;52034;51.926;6.320;2023-12-20T03:07:48;101294.28;;;6.83
58102;BMP280;52034;51.926;6.320;2023-12-20T03:08:49;101284.59;;;6.84
58102;BMP280;52034;51.926;6.320;2023-12-20T03:09:49;101278.75;;;6.80
58102;BMP280;52034;51.926;6.320;2023-12-20T03:10:50;101280.94;;;6.82
58102;BMP280;52034;51.926;6.320;2023-12-20T03:11:50;101280.22;;;6.81
58102;BMP280;52034;51.926;6.320;2023-12-20T03:12:50;101267.47;;;6.78
58102;BMP280;52034;51.926;6.320;2023-12-20T03:13:51;101277.78;;;6.87
58102;BMP280;52034;51.926;6.320;2023-12-20T03:14:51;101281.28;;;6.88
58102;BMP280;52034;51.926;6.320;2023-12-20T03:15:51;101282.03;;;6.88
58102;BMP280;52034;51.926;6.320;2023-12-20T03:16:52;101275.72;;;6.88
58102;BMP280;52034;51.926;6.320;2023-12-20T03:17:52;101279.25;;;6.88
58102;BMP280;52034;51.926;6.320;2023-12-20T03:18:52;101275.50;;;6.84
58102;BMP280;52034;51.926;6.320;2023-12-20T03:19:53;101276.94;;;6.85
58102;BMP280;52034;51.926;6.320;2023-12-20T03:20:54;101271.97;;;6.83
58102;BMP280;52034;51.926;6.320;2023-12-20T03:21:54;101268.78;;;6.77
58102;BMP280;52034;51.926;6.320;2023-12-20T03:22:54;101268.91;;;6.79
58102;BMP280;52034;51.926;6.320;2023-12-20T03:23:55;101275.94;;;6.80
58102;BMP280;52034;51.926;6.320;2023-12-20T03:24:55;101275.94;;;6.80
58102;BMP280;52034;51.926;6.320;2023-12-20T03:25:56;101267.25;;;6.74
58102;BMP280;52034;51.926;6.320;2023-12-20T03:26:56;101252.16;;;6.68
58102;BMP280;52034;51.926;6.320;2023-12-20T03:27:57;101264.47;;;6.74
58102;BMP280;52034;51.926;6.320;2023-12-20T03:28:57;101266.00;;;6.77
58102;BMP280;52034;51.926;6.320;2023-12-20T03:29:57;101270.38;;;6.80
58102;BMP280;52034;51.926;6.320;2023-12-20T03:30:58;101271.38;;;6.85
58102;BMP280;52034;51.926;6.320;2023-12-20T03:31:58;101279.03;;;6.84
58102;BMP280;52034;51.926;6.320;2023-12-20T03:32:58;101280.59;;;6.87
58102;BMP280;52034;51.926;6.320;2023-12-20T03:33:59;101261.06;;;6.87
58102;BMP280;52034;51.926;6.320;2023-12-20T03:34:59;101272.09;;;6.85
58102;BMP280;52034;51.926;6.320;2023-12-20T03:35:59;101267.25;;;6.86
58102;BMP280;52034;51.926;6.320;2023-12-20T03:37:00;101274.25;;;6.87
58102;BMP280;52034;51.926;6.320;2023-12-20T03:38:00;101278.63;;;6.90
58102;BMP280;52034;51.926;6.320;2023-12-20T03:39:01;101270.66;;;6.84
58102;BMP280;52034;51.926;6.320;2023-12-20T03:40:01;101264.78;;;6.80
58102;BMP280;52034;51.926;6.320;2023-12-20T03:41:02;101261.41;;;6.82
58102;BMP280;52034;51.926;6.320;2023-12-20T03:42:02;101269.06;;;6.81
58102;BMP280;52034;51.926;6.320;2023-12-20T03:43:03;101271.47;;;6.87
58102;BMP280;52034;51.926;6.320;2023-12-20T03:44:04;101269.16;;;6.83
58102;BMP280;52034;51.926;6.320;2023-12-20T03:45:04;101269.31;;;6.85
58102;BMP280;52034;51.926;6.320;2023-12-20T03:46:05;101264.19;;;6.82
58102;BMP280;52034;51.926;6.320;2023-12-20T03:47:06;101267.97;;;6.86
58102;BMP280;52034;51.926;6.320;2023-12-20T03:48:06;101266.28;;;6.81
58102;BMP280;52034;51.926;6.320;2023-12-20T03:49:07;101266.38;;;6.83
58102;BMP280;52034;51.926;6.320;2023-12-20T03:50:07;101260.56;;;6.79
58102;BMP280;52034;51.926;6.320;2023-12-20T03:51:08;101252.03;;;6.77
58102;BMP280;52034;51.926;6.320;2023-12-20T03:52:08;101256.16;;;6.76
58102;BMP280;52034;51.926;6.320;2023-12-20T03:53:08;101253.16;;;6.72
58102;BMP280;52034;51.926;6.320;2023-12-20T03:54:09;101263.09;;;6.75
58102;BMP280;52034;51.926;6.320;2023-12-20T03:55:09;101256.09;;;6.74
58102;BMP280;52034;51.926;6.320;2023-12-20T03:56:09;101262.28;;;6.73
58102;BMP280;52034;51.926;6.320;2023-12-20T03:57:10;101263.59;;;6.72
58102;BMP280;52034;51.926;6.320;2023-12-20T03:58:10;101258.88;;;6.74
58102;BMP280;52034;51.926;6.320;2023-12-20T03:59:11;101263.72;;;6.74
58102;BMP280;52034;51.926;6.320;2023-12-20T04:00:11;101266.59;;;6.76
58102;BMP280;52034;51.926;6.320;2023-12-20T04:01:15;101258.00;;;6.72
58102;BMP280;52034;51.926;6.320;2023-12-20T04:02:15;101260.19;;;6.73
58102;BMP280;52034;51.926;6.320;2023-12-20T04:03:15;101260.78;;;6.72
58102;BMP280;52034;51.926;6.320;2023-12-20T04:04:16;101255.94;;;6.72
58102;BMP280;52034;51.926;6.320;2023-12-20T04:05:16;101259.47;;;6.73
58102;BMP280;52034;51.926;6.320;2023-12-20T04:06:17;101254.09;;;6.65
58102;BMP280;52034;51.926;6.320;2023-12-20T04:07:18;101266.72;;;6.66
58102;BMP280;52034;51.926;6.320;2023-12-20T04:08:18;101261.00;;;6.64
58102;BMP280;52034;51.926;6.320;2023-12-20T04:09:18;101270.09;;;6.65
58102;BMP280;52034;51.926;6.320;2023-12-20T04:10:19;101265.38;;;6.67
58102;BMP280;52034;51.926;6.320;2023-12-20T04:11:19;101269.06;;;6.70
58102;BMP280;52034;51.926;6.320;2023-12-20T04:12:20;101271.84;;;6.70
58102;BMP280;52034;51.926;6.320;2023-12-20T04:13:20;101268.16;;;6.67
58102;BMP280;52034;51.926;6.320;2023-12-20T04:14:20;101273.03;;;6.67
58102;BMP280;52034;51.926;6.320;2023-12-20T04:15:21;101269.66;;;6.68
58102;BMP280;52034;51.926;6.320;2023-12-20T04:16:21;101275.09;;;6.66
58102;BMP280;52034;51.926;6.320;2023-12-20T04:17:21;101274.94;;;6.64
58102;BMP280;52034;51.926;6.320;2023-12-20T04:18:24;101282.13;;;6.67
58102;BMP280;52034;51.926;6.320;2023-12-20T04:19:25;101272.03;;;6.62
58102;BMP280;52034;51.926;6.320;2023-12-20T04:20:25;101266.59;;;6.64
58102;BMP280;52034;51.926;6.320;2023-12-20T04:21:26;101262.22;;;6.61
58102;BMP280;52034;51.926;6.320;2023-12-20T04:22:26;101260.66;;;6.58
58102;BMP280;52034;51.926;6.320;2023-12-20T04:23:26;101259.56;;;6.63
58102;BMP280;52034;51.926;6.320;2023-12-20T04:24:27;101255.94;;;6.61
58102;BMP280;52034;51.926;6.320;2023-12-20T04:25:27;101264.16;;;6.59
58102;BMP280;52034;51.926;6.320;2023-12-20T04:26:27;101260.78;;;6.60
58102;BMP280;52034;51.926;6.320;2023-12-20T04:27:29;101257.97;;;6.60
58102;BMP280;52034;51.926;6.320;2023-12-20T04:28:29;101259.66;;;6.54
58102;BMP280;52034;51.926;6.320;2023-12-20T04:29:30;101259.78;;;6.56
58102;BMP280;52034;51.926;6.320;2023-12-20T04:30:30;101254.94;;;6.56
58102;BMP280;52034;51.926;6.320;2023-12-20T04:31:31;101259.31;;;6.59
58102;BMP280;52034;51.926;6.320;2023-12-20T04:32:31;101272.03;;;6.62
58102;BMP280;52034;51.926;6.320;2023-12-20T04:33:31;101258.94;;;6.65
58102;BMP280;52034;51.926;6.320;2023-12-20T04:34:32;101264.78;;;6.69
58102;BMP280;52034;51.926;6.320;2023-12-20T04:35:32;101259.94;;;6.69
58102;BMP280;52034;51.926;6.320;2023-12-20T04:36:32;101264.31;;;6.72
58102;BMP280;52034;51.926;6.320;2023-12-20T04:37:33;101272.19;;;6.76
58102;BMP280;52034;51.926;6.320;2023-12-20T04:38:33;101274.38;;;6.77
58102;BMP280;52034;51.926;6.320;2023-12-20T04:39:34;101267.72;;;6.82
58102;BMP280;52034;51.926;6.320;2023-12-20T04:40:34;101262.59;;;6.79
58102;BMP280;52034;51.926;6.320;2023-12-20T04:41:34;101262.88;;;6.83
58102;BMP280;52034;51.926;6.320;2023-12-20T04:42:35;101261.41;;;6.82
58102;BMP280;52034;51.926;6.320;2023-12-20T04:43:35;101257.91;;;6.81
58102;BMP280;52034;51.926;6.320;2023-12-20T04:44:35;101265.06;;;6.84
58102;BMP280;52034;51.926;6.320;2023-12-20T04:45:36;101269.06;;;6.81
58102;BMP280;52034;51.926;6.320;2023-12-20T04:46:36;101260.81;;;6.83
58102;BMP280;52034;51.926;6.320;2023-12-20T04:47:37;101267.13;;;6.84
58102;BMP280;52034;51.926;6.320;2023-12-20T04:48:37;101266.38;;;6.83
58102;BMP280;52034;51.926;6.320;2023-12-20T04:49:37;101266.38;;;6.83
58102;BMP280;52034;51.926;6.320;2023-12-20T04:50:38;101263.19;;;6.77
58102;BMP280;52034;51.926;6.320;2023-12-20T04:51:38;101262.75;;;6.81
58102;BMP280;52034;51.926;6.320;2023-12-20T04:52:39;101268.69;;;6.87
58102;BMP280;52034;51.926;6.320;2023-12-20T04:53:39;101275.63;;;6.86
58102;BMP280;52034;51.926;6.320;2023-12-20T04:54:39;101277.78;;;6.87
58102;BMP280;52034;51.926;6.320;2023-12-20T04:55:40;101277.06;;;6.87
58102;BMP280;52034;51.926;6.320;2023-12-20T04:56:41;101263.00;;;6.85
58102;BMP280;52034;51.926;6.320;2023-12-20T04:57:41;101269.53;;;6.89
58102;BMP280;52034;51.926;6.320;2023-12-20T04:58:43;101266.00;;;6.89
58102;BMP280;52034;51.926;6.320;2023-12-20T04:59:43;101270.88;;;6.88
58102;BMP280;52034;51.926;6.320;2023-12-20T05:00:43;101267.34;;;6.88
58102;BMP280;52034;51.926;6.320;2023-12-20T05:01:44;101270.13;;;6.88
58102;BMP280;52034;51.926;6.320;2023-12-20T05:02:44;101271.47;;;6.87
58102;BMP280;52034;51.926;6.320;2023-12-20T05:03:45;101262.50;;;6.88
58102;BMP280;52034;51.926;6.320;2023-12-20T05:04:45;101258.00;;;6.83
58102;BMP280;52034;51.926;6.320;2023-12-20T05:05:46;101264.78;;;6.80
58102;BMP280;52034;51.926;6.320;2023-12-20T05:06:46;101279.84;;;6.87
58102;BMP280;52034;51.926;6.320;2023-12-20T05:07:46;101279.13;;;6.86
58102;BMP280;52034;51.926;6.320;2023-12-20T05:08:47;101273.44;;;6.84
58102;BMP280;52034;51.926;6.320;2023-12-20T05:09:47;101272.91;;;6.88
58102;BMP280;52034;51.926;6.320;2023-12-20T05:10:48;101264.94;;;6.82
58102;BMP280;52034;51.926;6.320;2023-12-20T05:11:49;101263.47;;;6.81
58102;BMP280;52034;51.926;6.320;2023-12-20T05:12:49;101260.19;;;6.85
58102;BMP280;52034;51.926;6.320;2023-12-20T05:13:49;101268.69;;;6.87
58102;BMP280;52034;51.926;6.320;2023-12-20T05:14:52;101267.84;;;6.84
58102;BMP280;52034;51.926;6.320;2023-12-20T05:15:52;101260.09;;;6.83
58102;BMP280;52034;51.926;6.320;2023-12-20T05:16:52;101265.19;;;6.86
58102;BMP280;52034;51.926;6.320;2023-12-20T05:17:53;101264.47;;;6.86
58102;BMP280;52034;51.926;6.320;2023-12-20T05:18:53;101270.13;;;6.88
58102;BMP280;52034;51.926;6.320;2023-12-20T05:19:54;101264.69;;;6.90
58102;BMP280;52034;51.926;6.320;2023-12-20T05:20:54;101268.31;;;6.92
58102;BMP280;52034;51.926;6.320;2023-12-20T05:21:54;101263.94;;;6.89
58102;BMP280;52034;51.926;6.320;2023-12-20T05:22:55;101258.25;;;6.87
58102;BMP280;52034;51.926;6.320;2023-12-20T05:23:55;101246.47;;;6.89
58102;BMP280;52034;51.926;6.320;2023-12-20T05:24:55;101249.38;;;6.91
58102;BMP280;52034;51.926;6.320;2023-12-20T05:25:56;101238.97;;;6.91
58102;BMP280;52034;51.926;6.320;2023-12-20T05:26:56;101241.75;;;6.91
58102;BMP280;52034;51.926;6.320;2023-12-20T05:27:57;101238.97;;;6.91
58102;BMP280;52034;51.926;6.320;2023-12-20T05:28:57;101238.09;;;6.89
58102;BMP280;52034;51.926;6.320;2023-12-20T05:29:57;101240.28;;;6.90
58102;BMP280;52034;51.926;6.320;2023-12-20T05:30:58;101233.84;;;6.88
58102;BMP280;52034;51.926;6.320;2023-12-20T05:31:58;101233.78;;;6.86
58102;BMP280;52034;51.926;6.320;2023-12-20T05:32:59;101238.81;;;6.89
58102;BMP280;52034;51.926;6.320;2023-12-20T05:33:59;101232.66;;;6.91
58102;BMP280;52034;51.926;6.320;2023-12-20T05:35:00;101236.16;;;6.91
58102;BMP280;52034;51.926;6.320;2023-12-20T05:36:00;101239.22;;;6.95
58102;BMP280;52034;51.926;6.320;2023-12-20T05:37:00;101231.44;;;6.94
58102;BMP280;52034;51.926;6.320;2023-12-20T05:38:02;101230.69;;;6.93
58102;BMP280;52034;51.926;6.320;2023-12-20T05:39:02;101235.22;;;6.98
58102;BMP280;52034;51.926;6.320;2023-12-20T05:40:06;101237.88;;;6.96
58102;BMP280;52034;51.926;6.320;2023-12-20T05:41:06;101233.84;;;6.99
58102;BMP280;52034;51.926;6.320;2023-12-20T05:42:07;101215.91;;;6.91
58102;BMP280;52034;51.926;6.320;2023-12-20T05:43:07;101231.91;;;7.02
58102;BMP280;52034;51.926;6.320;2023-12-20T05:44:07;101235.66;;;7.06
58102;BMP280;52034;51.926;6.320;2023-12-20T05:45:09;101240.91;;;7.12
58102;BMP280;52034;51.926;6.320;2023-12-20T05:46:12;101245.13;;;7.13
58102;BMP280;52034;51.926;6.320;2023-12-20T05:47:12;101243.06;;;7.13
58102;BMP280;52034;51.926;6.320;2023-12-20T05:48:13;101237.47;;;7.13
58102;BMP280;52034;51.926;6.320;2023-12-20T05:49:13;101243.94;;;7.16